Wibaux, MT (59353)

4:15 PM MDT on September 20, 2014 (GMT -0600)
RAWS PINE HILL MT US | Change Station
CLOSE
Current Station
Personal Weather Station
Location: Mildred, MT
Elevation: 2648 ft
Nearby Weather Stations

Elev 2648 ft 46.78 °N, 104.58 °W | Updated 51 minutes ago

Clear
Clear
74 °F
Feels Like 76 °F
N
11
Wind Variable Wind from NW
Gusts 28.0 mph

Today
High -- | Low -- °F
--% Chance of Precip.
Yesterday
High -- | Low -- °F
Precip. -- in
6:41 AM 6:58 PM
Waning Crescent, 10% visible
Pressure 30.12 in
Visibility 10.0 miles
Clouds Clear
Heat Index 76 °F
Dew Point 34 °F
Humidity 23%
Rainfall 0.00 in
Snow Depth 0 in , 0 in , 0 in
UV 6 out of 12
Pollen 4.50 out of 12
Air Quality Not available.
Flu Activity Not available.
METAR KBHK 201951Z AUTO 31024G30KT 10SM CLR 22/02 A3015 RMK AO2 PK WND 33036/1935 SLP198 T02220022

More Conditions Fewer Conditions

Pressure 30.12 in
Visibility 10.0 miles
Clouds Clear
Heat Index 76 °F
Dew Point 34 °F
Humidity 23%
Rainfall 0.00 in
Snow Depth 0 in , 0 in , 0 in
UV 6 out of 12
Pollen 4.50 out of 12
Air Quality Not available.
Flu Activity Not available.
METAR KBHK 201951Z AUTO 31024G30KT 10SM CLR 22/02 A3015 RMK AO2 PK WND 33036/1935 SLP198 T02220022

More Conditions Fewer Conditions

10-Day Weather Forecast

Almanac

Astronomy

Sep. 20, 2014 Rise Set
Actual Time 6:41 AM MDT 6:58 PM MDT
Civil Twilight 6:10 AM MDT 7:28 PM MDT
Nautical Twilight 5:34 AM MDT 8:04 PM MDT
Astronomical Twilight 4:57 AM MDT 8:41 PM MDT
Moon 3:12 AM MDT 5:11 PM MDT
Length of Visible Light 13h 18m
Length of Day
12h 17m
Tomorrow will be 3m 20s shorter.
Waning Crescent, 10% of the Moon is Illuminated
Today
Waning Crescent
Sep 24
New
Oct 1
First Quarter
Oct 8
Full
Oct 15
Last Quarter

Today's Extremes

State Highs State Lows

Community

WunderPhotos

Upload Photos

1,754,968 photos uploaded!

WunderBlogs® & News

Nearby

Snow Depth

Station Depth Elevation
Cole Creek 0 in 7850 ft
Porcupine 0 in 6500 ft
Hoodoo Basin 0 in 6050 ft
Stahl Peak 0 in 6030 ft
Sleeping Woman 0 in 6150 ft

Earthquake Activity

City Distance Mag. Time & Date
No recent earthquake activity has been reported nearby.
Minimum magnitude displayed is 2.5.

Coastal Water Temperatures

Place Temperature
No Stations Reporting

Nearby Weather Stations